Time;durP1;ratioP1;P1;durP2;ratioP2;P2;SDS_P1;SDS_P2;PMS_P1;PMS_P2;Temp;Humidity;BMP_temperature;BMP_pressure;BME280_temperature;BME280_humidity;BME280_pressure;Samples;Min_cycle;Max_cycle;Signal;HPM_P1;HPM_P2
2022/04/29 00:02:07;;;;;;;15.07;7.50;;;;;;;15.10;44.44;102567.91;5003649;28;96833;-70
2022/04/29 00:04:34;;;;;;;15.55;6.35;;;;;;;15.00;44.42;102561.09;5001386;28;98951;-69
2022/04/29 00:07:01;;;;;;;14.93;7.05;;;;;;;15.37;43.81;102569.88;4998223;28;99318;-70
2022/04/29 00:09:28;;;;;;;12.27;6.88;;;;;;;15.41;43.63;102571.56;5000679;28;97175;-69
2022/04/29 00:11:57;;;;;;;15.00;7.68;;;;;;;15.93;42.08;102576.34;5003941;28;98783;-69
2022/04/29 00:14:23;;;;;;;12.73;6.80;;;;;;;15.75;42.36;102576.00;5004856;28;98103;-70
2022/04/29 00:16:51;;;;;;;12.48;7.63;;;;;;;15.77;42.52;102572.34;5004673;28;98906;-70
2022/04/29 00:19:19;;;;;;;15.48;6.93;;;;;;;15.89;41.85;102565.78;4999372;28;96968;-71
2022/04/29 00:21:45;;;;;;;11.55;7.07;;;;;;;15.70;42.42;102572.56;4993910;28;97331;-69
2022/04/29 00:24:12;;;;;;;11.82;7.32;;;;;;;15.61;42.68;102572.84;4999444;28;99060;-67
2022/04/29 00:26:40;;;;;;;13.77;7.50;;;;;;;15.21;43.53;102573.88;5002523;28;98878;-68
2022/04/29 00:29:07;;;;;;;14.15;7.57;;;;;;;15.24;43.77;102575.56;5004869;28;96869;-68
2022/04/29 00:31:35;;;;;;;17.30;7.60;;;;;;;15.12;45.17;102574.97;5001785;28;96878;-67
2022/04/29 00:34:03;;;;;;;19.95;7.82;;;;;;;14.84;45.72;102570.34;5000960;28;98228;-67
2022/04/29 00:36:30;;;;;;;18.33;8.73;;;;;;;14.88;45.50;102569.38;4999006;28;101474;-67
2022/04/29 00:38:56;;;;;;;24.75;8.27;;;;;;;14.82;45.38;102564.22;5002862;28;97311;-66
2022/04/29 00:41:24;;;;;;;13.30;7.78;;;;;;;14.53;46.09;102567.56;5004575;28;96917;-67
2022/04/29 00:43:59;;;;;;;18.20;8.43;;;;;;;14.40;46.39;102569.63;5006323;28;98390;-67
2022/04/29 00:46:26;;;;;;;15.27;7.90;;;;;;;14.46;46.22;102561.50;5004496;28;101809;-66
2022/04/29 00:48:53;;;;;;;20.13;8.50;;;;;;;14.33;46.29;102554.69;5007565;28;96733;-67
2022/04/29 00:51:21;;;;;;;17.40;8.20;;;;;;;14.21;46.63;102561.16;5001143;28;96927;-65
2022/04/29 00:53:49;;;;;;;16.52;7.95;;;;;;;14.36;46.63;102559.94;5001039;28;99246;-70
2022/04/29 00:56:18;;;;;;;18.33;8.65;;;;;;;14.19;47.24;102559.41;5002700;28;98475;-69
2022/04/29 00:58:50;;;;;;;17.98;8.05;;;;;;;14.22;47.39;102562.03;5001311;28;96878;-70
2022/04/29 01:01:17;;;;;;;14.75;8.20;;;;;;;14.07;47.78;102557.03;5000272;27;97261;-70
2022/04/29 01:03:43;;;;;;;18.25;8.77;;;;;;;13.89;48.24;102555.66;5000598;28;99493;-70
2022/04/29 01:06:10;;;;;;;21.20;8.38;;;;;;;13.78;48.27;102555.00;4997818;28;99311;-69
2022/04/29 01:08:38;;;;;;;20.70;8.77;;;;;;;13.69;48.85;102552.50;4999186;28;97013;-69
2022/04/29 01:11:05;;;;;;;16.15;8.30;;;;;;;13.84;48.36;102560.19;5005118;28;97944;-73
2022/04/29 01:13:32;;;;;;;19.98;9.05;;;;;;;13.85;48.06;102548.63;5004760;28;99481;-70
2022/04/29 01:15:58;;;;;;;19.48;9.02;;;;;;;13.72;48.38;102548.00;5005733;28;98261;-70
2022/04/29 01:18:26;;;;;;;16.55;8.15;;;;;;;13.68;48.71;102546.31;4999924;28;96907;-70
2022/04/29 01:21:03;;;;;;;15.52;7.63;;;;;;;13.71;48.26;102542.75;5001917;28;96870;-70
2022/04/29 01:23:32;;;;;;;17.92;8.50;;;;;;;13.64;48.74;102549.97;5006608;28;98262;-69
2022/04/29 01:25:59;;;;;;;24.27;8.73;;;;;;;13.57;49.15;102540.34;5000057;28;98787;-71
2022/04/29 01:28:27;;;;;;;19.33;8.23;;;;;;;13.59;49.09;102543.00;5002198;28;97928;-69
2022/04/29 01:30:54;;;;;;;23.05;8.85;;;;;;;13.44;50.03;102537.06;5007512;28;97079;-70
2022/04/29 01:33:22;;;;;;;18.05;8.00;;;;;;;13.34;50.05;102537.25;5007390;28;98951;-71
2022/04/29 01:35:48;;;;;;;18.52;8.57;;;;;;;13.29;49.96;102539.13;5006066;28;98080;-70
2022/04/29 01:38:15;;;;;;;14.45;7.82;;;;;;;13.42;49.44;102536.22;5002451;28;96994;-69
2022/04/29 01:40:42;;;;;;;18.50;9.40;;;;;;;14.06;47.90;102534.88;5005699;28;97526;-69
2022/04/29 01:43:09;;;;;;;16.75;8.23;;;;;;;13.70;48.47;102547.19;5009910;28;99195;-70
2022/04/29 01:45:35;;;;;;;13.68;7.75;;;;;;;13.93;47.89;102542.25;5003444;28;98786;-70
2022/04/29 01:48:02;;;;;;;13.63;7.97;;;;;;;14.04;46.79;102539.38;5006020;28;96867;-68
2022/04/29 01:50:28;;;;;;;17.60;8.60;;;;;;;14.18;46.26;102541.72;5008901;28;96814;-68
2022/04/29 01:52:55;;;;;;;18.27;7.88;;;;;;;14.27;46.04;102544.19;5005537;28;98787;-67
2022/04/29 01:55:21;;;;;;;17.50;9.50;;;;;;;14.26;46.76;102543.31;5007327;28;101576;-69
2022/04/29 01:57:51;;;;;;;16.70;8.65;;;;;;;14.42;47.41;102535.91;5004863;28;98612;-68
2022/04/29 02:00:18;;;;;;;22.20;9.18;;;;;;;13.98;49.11;102533.31;5007996;28;96749;-67
2022/04/29 02:02:45;;;;;;;16.88;8.18;;;;;;;13.79;49.74;102533.69;5004472;28;99232;-68
2022/04/29 02:05:12;;;;;;;21.70;8.48;;;;;;;13.72;49.88;102526.75;5008630;28;99112;-68
2022/04/29 02:07:40;;;;;;;20.30;8.57;;;;;;;13.55;49.91;102531.53;5004285;28;97830;-68
2022/04/29 02:10:07;;;;;;;19.63;9.23;;;;;;;13.64;50.39;102535.81;5006356;28;98795;-68
2022/04/29 02:12:35;;;;;;;22.45;9.02;;;;;;;13.75;50.05;102532.00;5002505;28;98095;-67
2022/04/29 02:15:04;;;;;;;17.73;8.88;;;;;;;13.87;49.59;102531.75;5006755;28;100192;-67
2022/04/29 02:17:31;;;;;;;15.20;8.65;;;;;;;13.53;50.09;102534.22;5005122;28;96815;-67
2022/04/29 02:19:57;;;;;;;16.35;8.95;;;;;;;13.87;49.36;102529.09;5005937;28;96867;-67
2022/04/29 02:22:23;;;;;;;22.40;8.82;;;;;;;13.74;49.76;102535.56;5001652;28;97743;-67
2022/04/29 02:24:50;;;;;;;19.98;8.95;;;;;;;13.69;49.62;102536.56;5013469;28;101390;-68
2022/04/29 02:27:16;;;;;;;21.08;9.45;;;;;;;13.51;50.03;102536.03;5000740;28;96784;-68
2022/04/29 02:29:43;;;;;;;16.88;8.40;;;;;;;13.30;50.75;102540.88;5000113;28;97981;-67
2022/04/29 02:32:11;;;;;;;18.50;8.52;;;;;;;13.40;50.50;102542.44;5000450;28;101534;-68
2022/04/29 02:34:40;;;;;;;16.73;8.50;;;;;;;13.42;50.42;102538.88;5002261;28;99704;-69
2022/04/29 02:37:06;;;;;;;16.67;8.93;;;;;;;13.45;49.86;102536.16;5004121;28;96775;-68
2022/04/29 02:39:33;;;;;;;20.25;9.00;;;;;;;13.35;49.92;102531.91;5004074;28;96930;-70
2022/04/29 02:41:59;;;;;;;15.93;8.82;;;;;;;13.60;49.45;102534.97;5006246;28;97678;-68
2022/04/29 02:44:26;;;;;;;15.35;8.57;;;;;;;13.23;50.26;102541.88;5007160;28;98935;-71
2022/04/29 02:47:08;;;;;;;18.77;9.02;;;;;;;13.26;49.76;102531.22;5007318;28;97548;-68
2022/04/29 02:49:36;;;;;;;19.08;8.90;;;;;;;13.15;50.09;102531.41;5003913;28;99893;-68
2022/04/29 02:52:03;;;;;;;17.95;8.80;;;;;;;13.10;50.33;102534.13;5002639;28;99795;-68
2022/04/29 02:54:29;;;;;;;16.90;8.68;;;;;;;13.10;50.43;102520.84;5001708;28;102614;-68
2022/04/29 02:56:58;;;;;;;15.25;8.73;;;;;;;13.16;50.27;102527.84;5005028;28;96928;-68
2022/04/29 02:59:25;;;;;;;15.27;8.15;;;;;;;12.99;50.44;102529.91;5001155;28;98081;-68
2022/04/29 03:01:52;;;;;;;15.10;8.48;;;;;;;12.89;50.86;102529.16;5001769;28;97653;-68
2022/04/29 03:04:18;;;;;;;17.60;8.93;;;;;;;12.85;50.93;102518.66;5007732;28;101258;-68
2022/04/29 03:06:46;;;;;;;16.65;9.40;;;;;;;12.86;50.67;102523.94;5006890;28;97265;-68
2022/04/29 03:09:13;;;;;;;14.32;7.63;;;;;;;12.87;50.88;102525.66;5005132;28;96821;-71
2022/04/29 03:11:40;;;;;;;22.65;8.40;;;;;;;12.87;50.92;102525.66;5009929;28;98920;-71
2022/04/29 03:14:06;;;;;;;17.27;8.77;;;;;;;12.86;50.77;102523.06;5008459;28;99375;-70
2022/04/29 03:16:33;;;;;;;16.20;9.05;;;;;;;12.88;50.62;102527.41;5004230;28;97128;-70
2022/04/29 03:19:00;;;;;;;18.30;8.35;;;;;;;12.86;50.57;102523.06;5005089;28;96779;-70
2022/04/29 03:21:27;;;;;;;13.73;8.48;;;;;;;12.80;51.02;102524.00;5006696;28;99254;-70
2022/04/29 03:23:54;;;;;;;19.60;8.30;;;;;;;12.96;50.36;102514.91;5010546;28;98702;-70
2022/04/29 03:26:21;;;;;;;15.35;8.38;;;;;;;12.69;51.01;102525.97;5000741;28;97141;-70
2022/04/29 03:28:47;;;;;;;13.73;8.10;;;;;;;12.83;50.94;102521.31;5002495;28;96846;-69
2022/04/29 03:31:14;;;;;;;20.25;8.48;;;;;;;12.76;51.14;102522.31;5002648;28;99043;-69
2022/04/29 03:33:40;;;;;;;14.15;8.35;;;;;;;12.65;51.16;102522.50;5001622;28;98696;-68
2022/04/29 03:36:08;;;;;;;11.73;7.25;;;;;;;12.80;50.71;102518.69;5003691;28;96812;-69
2022/04/29 03:38:35;;;;;;;15.13;8.48;;;;;;;12.56;51.05;102517.34;5005239;28;98816;-69
2022/04/29 03:41:03;;;;;;;13.32;8.57;;;;;;;12.58;51.20;102515.53;5002416;28;100823;-69
2022/04/29 03:43:30;;;;;;;13.07;7.85;;;;;;;12.63;50.78;102512.81;4999735;28;101767;-68
2022/04/29 03:45:56;;;;;;;15.20;8.88;;;;;;;12.77;50.56;102518.78;5006102;28;97677;-70
2022/04/29 03:48:22;;;;;;;15.35;7.95;;;;;;;12.72;50.83;102520.63;5004033;28;96847;-68
2022/04/29 03:50:49;;;;;;;18.00;8.05;;;;;;;12.76;51.02;102523.19;5010118;28;99457;-69
2022/04/29 03:53:15;;;;;;;15.88;7.80;;;;;;;12.74;50.81;102517.03;5007799;28;100767;-69
2022/04/29 03:55:42;;;;;;;12.70;8.10;;;;;;;12.78;50.73;102518.75;5002019;28;96969;-70
2022/04/29 03:58:10;;;;;;;19.40;8.23;;;;;;;12.68;50.76;102521.56;5000691;28;97010;-69
2022/04/29 04:00:37;;;;;;;20.25;8.40;;;;;;;12.77;50.30;102516.13;4999190;28;99127;-69
2022/04/29 04:03:05;;;;;;;16.45;7.55;;;;;;;12.77;50.70;102521.41;4999340;28;97562;-72
2022/04/29 04:05:31;;;;;;;23.88;9.05;;;;;;;12.74;50.31;102519.69;5001848;28;96915;-70
2022/04/29 04:07:58;;;;;;;17.40;7.90;;;;;;;12.92;50.04;102518.53;5006354;28;97244;-69
2022/04/29 04:10:25;;;;;;;17.38;7.43;;;;;;;13.03;49.74;102527.16;5002908;28;97967;-70
2022/04/29 04:12:53;;;;;;;15.40;8.27;;;;;;;13.00;49.78;102518.34;5006312;28;98206;-70
2022/04/29 04:15:23;;;;;;;19.88;8.57;;;;;;;13.12;49.80;102516.44;5005267;28;96728;-69
2022/04/29 04:17:50;;;;;;;18.17;8.52;;;;;;;13.11;49.67;102521.72;4998404;28;97222;-70
2022/04/29 04:20:17;;;;;;;16.58;8.95;;;;;;;13.20;49.43;102515.38;5004713;28;99412;-70
2022/04/29 04:22:44;;;;;;;15.25;7.90;;;;;;;13.36;48.88;102508.91;5002497;28;102048;-70
2022/04/29 04:25:12;;;;;;;15.35;8.15;;;;;;;13.37;48.82;102516.84;5006167;28;97854;-70
2022/04/29 04:27:39;;;;;;;24.40;9.05;;;;;;;13.49;48.81;102521.03;5001671;28;97760;-69
2022/04/29 04:30:07;;;;;;;19.33;8.02;;;;;;;13.71;48.06;102521.50;5005154;28;97659;-69
2022/04/29 04:32:37;;;;;;;15.85;7.88;;;;;;;14.00;47.72;102523.50;5004842;28;98834;-67
2022/04/29 04:35:05;;;;;;;24.58;10.65;;;;;;;14.15;47.47;102525.84;5009778;28;97097;-66
2022/04/29 04:37:32;;;;;;;16.30;9.15;;;;;;;14.11;47.44;102532.16;5002519;28;96815;-66
2022/04/29 04:39:59;;;;;;;16.25;8.60;;;;;;;14.44;46.96;102525.22;5003871;28;97572;-67
2022/04/29 04:42:25;;;;;;;22.10;8.52;;;;;;;14.41;46.69;102523.50;5006894;28;99363;-67
2022/04/29 04:44:53;;;;;;;15.75;8.30;;;;;;;14.54;46.50;102524.97;5001777;28;97106;-66
2022/04/29 04:47:20;;;;;;;17.95;9.68;;;;;;;14.84;45.63;102525.13;5003450;28;97022;-67
2022/04/29 04:49:48;;;;;;;19.08;7.90;;;;;;;14.85;45.91;102530.41;5002551;28;99365;-68
2022/04/29 04:52:14;;;;;;;50.55;23.00;;;;;;;15.09;45.30;102528.94;5000422;28;98822;-68
2022/04/29 04:54:41;;;;;;;26.67;12.25;;;;;;;14.81;46.01;102525.22;5007694;28;97497;-68
2022/04/29 04:57:07;;;;;;;23.38;11.75;;;;;;;14.89;46.06;102534.75;5002390;28;97157;-66
2022/04/29 04:59:34;;;;;;;28.85;11.07;;;;;;;15.20;45.95;102534.84;5001656;28;99264;-68
2022/04/29 05:02:00;;;;;;;20.42;10.45;;;;;;;15.17;46.42;102534.91;5002224;28;98934;-70
2022/04/29 05:04:27;;;;;;;17.48;8.80;;;;;;;15.87;44.36;102538.31;5001868;28;96870;-68
2022/04/29 05:06:55;;;;;;;18.52;8.75;;;;;;;15.95;43.91;102541.63;5003397;28;99304;-68
2022/04/29 05:09:23;;;;;;;16.73;7.82;;;;;;;16.32;43.01;102541.41;4999774;28;99804;-67
2022/04/29 05:11:50;;;;;;;13.55;7.13;;;;;;;16.41;41.64;102540.25;5001662;28;101668;-71
2022/04/29 05:14:17;;;;;;;12.65;7.43;;;;;;;16.42;41.53;102536.63;5003648;28;97483;-71
2022/04/29 05:16:43;;;;;;;17.98;8.55;;;;;;;16.49;41.16;102543.53;5004316;28;96926;-70
2022/04/29 05:19:09;;;;;;;13.85;7.35;;;;;;;16.55;39.99;102544.19;5001267;28;101498;-71
2022/04/29 05:21:36;;;;;;;13.70;6.63;;;;;;;16.45;38.21;102548.09;5005110;28;102525;-69
2022/04/29 05:24:04;;;;;;;16.65;6.80;;;;;;;16.60;38.44;102547.66;5009382;28;96826;-70
2022/04/29 05:26:31;;;;;;;12.57;6.40;;;;;;;16.59;39.11;102545.88;5002021;28;96851;-69
2022/04/29 05:28:57;;;;;;;12.70;6.55;;;;;;;16.48;39.26;102556.00;5001540;28;99316;-69
2022/04/29 05:31:24;;;;;;;16.73;6.63;;;;;;;16.60;39.83;102555.66;5000931;28;98626;-69
2022/04/29 05:33:50;;;;;;;17.67;6.43;;;;;;;16.81;39.59;102542.50;4997456;28;98777;-70
2022/04/29 05:36:17;;;;;;;16.33;7.20;;;;;;;16.83;38.74;102554.03;4997341;28;97678;-68
2022/04/29 05:44:14;;;;;;;17.92;5.95;;;;;;;16.77;36.19;102541.75;4999060;28;98883;-67
2022/04/29 05:46:40;;;;;;;20.90;6.10;;;;;;;17.16;35.93;102534.19;5003590;28;98663;-67
2022/04/29 05:49:07;;;;;;;20.33;6.47;;;;;;;17.24;35.49;102534.81;4999204;28;99336;-66
2022/04/29 05:51:34;;;;;;;22.05;6.25;;;;;;;17.40;35.18;102536.00;5003025;28;98429;-67
2022/04/29 05:54:01;;;;;;;16.38;4.90;;;;;;;17.14;33.56;102541.38;5006528;28;98679;-67
2022/04/29 05:56:28;;;;;;;15.05;4.95;;;;;;;17.00;33.52;102538.31;5003232;28;96962;-68
2022/04/29 05:58:56;;;;;;;14.98;5.47;;;;;;;17.06;33.49;102540.78;5000734;28;101805;-68
2022/04/29 06:01:22;;;;;;;13.93;5.35;;;;;;;17.35;32.85;102531.75;5000459;28;99594;-67
2022/04/29 06:03:49;;;;;;;12.60;5.63;;;;;;;17.85;32.03;102530.78;5000375;28;97824;-70
2022/04/29 06:06:16;;;;;;;21.60;5.43;;;;;;;18.21;31.21;102533.00;4999826;28;98805;-70
2022/04/29 06:08:42;;;;;;;15.13;5.75;;;;;;;18.51;31.05;102531.75;5005051;28;97726;-68
2022/04/29 06:11:09;;;;;;;31.48;5.75;;;;;;;19.01;30.97;102539.56;4999664;28;100907;-67
2022/04/29 06:13:37;;;;;;;13.50;5.20;;;;;;;19.25;30.37;102538.50;5001440;28;96812;-68
2022/04/29 06:16:06;;;;;;;18.38;4.82;;;;;;;19.19;29.16;102543.25;5001567;28;97069;-68
2022/04/29 06:18:36;;;;;;;15.02;4.28;;;;;;;18.98;28.52;102534.31;5003578;28;99254;-68
2022/04/29 06:21:03;;;;;;;21.00;6.25;;;;;;;18.93;28.66;102537.19;5000501;28;99592;-69
2022/04/29 06:23:30;;;;;;;12.82;4.15;;;;;;;19.40;28.57;102542.31;4998064;28;98662;-68
2022/04/29 06:25:56;;;;;;;19.17;4.10;;;;;;;18.95;29.03;102547.84;4999274;28;97025;-72
2022/04/29 06:28:23;;;;;;;10.55;3.08;;;;;;;18.10;27.59;102545.91;4991546;28;99007;-69
2022/04/29 06:30:50;;;;;;;12.43;2.90;;;;;;;18.31;27.18;102545.09;4993232;28;99244;-68
2022/04/29 06:33:18;;;;;;;17.40;3.63;;;;;;;18.90;26.70;102542.69;5002698;28;97220;-67
2022/04/29 06:35:44;;;;;;;13.05;2.92;;;;;;;18.73;26.31;102534.47;5007564;28;97308;-68
2022/04/29 06:38:11;;;;;;;11.52;3.05;;;;;;;19.35;26.25;102542.53;4995971;28;98742;-68
2022/04/29 06:40:37;;;;;;;9.73;2.97;;;;;;;19.49;26.09;102548.16;5002395;28;98873;-68
2022/04/29 06:43:04;;;;;;;8.02;2.50;;;;;;;19.55;25.61;102548.84;5004036;28;97563;-68
2022/04/29 06:45:30;;;;;;;17.15;2.83;;;;;;;18.81;25.73;102548.44;4997746;28;96944;-68
2022/04/29 06:47:57;;;;;;;8.57;2.47;;;;;;;19.16;25.68;102548.75;5003728;28;97583;-68
2022/04/29 06:50:25;;;;;;;16.42;2.67;;;;;;;19.45;24.75;102546.53;5010782;28;98027;-67
2022/04/29 06:52:52;;;;;;;18.42;2.72;;;;;;;20.13;24.43;102536.31;5005484;28;97142;-67
2022/04/29 06:55:18;;;;;;;15.35;2.67;;;;;;;20.09;23.96;102534.69;5000570;28;97321;-68
2022/04/29 06:57:46;;;;;;;10.85;2.55;;;;;;;19.77;24.07;102549.63;4998652;28;102410;-70
2022/04/29 07:00:14;;;;;;;12.85;2.78;;;;;;;19.88;24.15;102544.66;5000681;28;99582;-70
2022/04/29 07:02:41;;;;;;;12.15;2.30;;;;;;;20.34;23.77;102547.88;4996205;28;97340;-71
2022/04/29 07:05:09;;;;;;;11.40;2.60;;;;;;;19.40;24.76;102548.56;4998303;28;97771;-71
2022/04/29 07:07:37;;;;;;;13.88;2.78;;;;;;;19.14;24.83;102553.31;4997455;28;100908;-70
2022/04/29 07:10:04;;;;;;;12.38;2.33;;;;;;;19.47;24.69;102554.56;5011290;28;99434;-70
2022/04/29 07:12:33;;;;;;;10.88;2.08;;;;;;;20.07;24.11;102556.28;5011007;28;96752;-70
2022/04/29 07:15:00;;;;;;;10.35;2.47;;;;;;;20.11;23.96;102555.16;4994538;28;98465;-72
2022/04/29 07:17:27;;;;;;;11.75;2.38;;;;;;;20.07;23.25;102555.41;4999447;28;99325;-70
2022/04/29 07:19:53;;;;;;;11.13;2.20;;;;;;;21.12;22.28;102552.94;5000447;28;98812;-71
2022/04/29 07:22:20;;;;;;;17.20;1.83;;;;;;;20.89;22.20;102549.59;5002206;28;96873;-70
2022/04/29 07:24:50;;;;;;;12.07;1.90;;;;;;;21.70;21.25;102545.41;5009781;28;96889;-70
2022/04/29 07:27:17;;;;;;;9.80;2.22;;;;;;;21.82;21.50;102545.59;4999459;28;99028;-71
2022/04/29 07:29:44;;;;;;;15.70;2.90;;;;;;;21.22;22.13;102540.78;4999484;28;99203;-70
2022/04/29 07:32:10;;;;;;;15.10;2.65;;;;;;;22.73;20.72;102541.44;5002539;28;98893;-71
2022/04/29 07:42:57;;;;;;;12.18;3.42;;;;;;;21.83;21.65;102536.59;4961350;28;97559;-70
2022/04/29 07:45:24;;;;;;;14.77;2.65;;;;;;;21.68;21.91;102534.72;5001023;28;96711;-69
2022/04/29 07:47:52;;;;;;;8.48;2.60;;;;;;;22.11;21.58;102535.97;5001771;28;98938;-70
2022/04/29 07:50:18;;;;;;;11.10;3.22;;;;;;;21.75;21.65;102541.50;5002181;28;98951;-70
2022/04/29 07:52:45;;;;;;;24.30;3.22;;;;;;;21.91;21.94;102535.31;5002736;28;96940;-70
2022/04/29 07:55:14;;;;;;;10.80;3.20;;;;;;;21.58;22.14;102535.31;4995873;28;98362;-70
2022/04/29 07:57:40;;;;;;;9.77;3.05;;;;;;;21.90;21.78;102534.44;5002197;28;98941;-70
2022/04/29 08:00:10;;;;;;;13.57;3.35;;;;;;;21.93;21.52;102526.16;5000953;28;98752;-70
2022/04/29 08:02:36;;;;;;;13.18;3.20;;;;;;;21.94;21.74;102524.34;4989529;28;101209;-70
2022/04/29 08:05:03;;;;;;;16.08;3.40;;;;;;;21.94;21.63;102527.91;5003885;28;99341;-71
2022/04/29 08:07:30;;;;;;;11.00;2.88;;;;;;;21.73;22.13;102516.50;4996851;28;99107;-69
2022/04/29 08:09:56;;;;;;;14.27;3.38;;;;;;;21.80;21.84;102525.97;4992393;28;98801;-70
2022/04/29 08:12:26;;;;;;;10.23;3.33;;;;;;;21.85;21.90;102523.06;5001433;28;97139;-70
2022/04/29 08:14:59;;;;;;;14.85;3.83;;;;;;;21.92;21.88;102524.47;5005874;28;97322;-69
2022/04/29 08:17:26;;;;;;;22.48;5.45;;;;;;;22.24;21.94;102522.69;4990957;28;98960;-68
2022/04/29 08:19:52;;;;;;;11.27;2.92;;;;;;;21.65;22.46;102521.44;4995929;28;98941;-68
2022/04/29 08:22:20;;;;;;;12.82;3.10;;;;;;;22.17;21.76;102530.25;4993405;28;97717;-70
2022/04/29 08:24:47;;;;;;;15.45;3.00;;;;;;;21.86;21.63;102531.03;4991151;28;98056;-68
2022/04/29 08:27:14;;;;;;;12.90;2.65;;;;;;;22.26;21.27;102534.22;4994123;28;101533;-68
2022/04/29 08:29:42;;;;;;;12.05;3.13;;;;;;;22.36;21.34;102530.06;5008362;28;99381;-67
2022/04/29 08:32:09;;;;;;;9.55;2.50;;;;;;;22.57;21.13;102536.06;4999909;28;96822;-67
2022/04/29 08:34:35;;;;;;;12.50;3.00;;;;;;;22.39;21.30;102529.88;4999819;28;97586;-69
2022/04/29 08:37:03;;;;;;;14.80;3.30;;;;;;;22.67;21.06;102530.03;4999042;28;99406;-68
2022/04/29 08:39:30;;;;;;;13.13;2.88;;;;;;;22.08;21.78;102530.75;5006777;28;98595;-67
2022/04/29 08:42:00;;;;;;;15.10;3.72;;;;;;;21.64;22.25;102527.78;5001999;28;97222;-68
2022/04/29 08:44:29;;;;;;;10.27;3.33;;;;;;;22.12;22.04;102520.69;4998540;28;96947;-66
2022/04/29 08:46:58;;;;;;;7.15;3.10;;;;;;;21.90;22.07;102525.50;4996955;28;97697;-67
2022/04/29 08:49:25;;;;;;;12.60;3.13;;;;;;;22.25;22.01;102525.28;4995673;28;98774;-69
2022/04/29 08:51:52;;;;;;;16.15;4.03;;;;;;;21.79;22.25;102513.47;4990527;28;97007;-68
2022/04/29 08:59:47;;;;;;;16.30;3.38;;;;;;;21.86;22.58;102514.88;4994322;28;99159;-69
2022/04/29 09:02:15;;;;;;;10.55;3.58;;;;;;;21.71;22.75;102509.47;4995312;28;98892;-67
2022/04/29 09:04:41;;;;;;;11.07;3.40;;;;;;;21.78;22.64;102511.75;5005047;28;98000;-68
2022/04/29 09:07:09;;;;;;;8.77;3.35;;;;;;;22.31;22.38;102516.00;4994867;28;100494;-68
2022/04/29 09:09:36;;;;;;;14.00;3.58;;;;;;;22.28;22.29;102508.09;5007131;28;97984;-68
2022/04/29 09:12:16;;;;;;;9.43;3.75;;;;;;;22.52;21.74;102517.44;5000836;28;97278;-69
2022/04/29 09:14:42;;;;;;;11.30;3.78;;;;;;;22.18;22.29;102509.59;4997948;28;97489;-68
2022/04/29 09:17:27;;;;;;;9.52;3.88;;;;;;;22.19;22.55;102512.16;5004786;28;99314;-68
2022/04/29 09:19:54;;;;;;;13.90;4.97;;;;;;;21.71;23.02;102509.47;5004040;28;99051;-68
2022/04/29 09:22:20;;;;;;;22.13;4.82;;;;;;;22.51;22.23;102513.00;5001017;28;97127;-68
2022/04/29 09:25:00;;;;;;;13.50;4.03;;;;;;;21.44;23.65;102498.38;5004923;28;98113;-69
2022/04/29 09:27:26;;;;;;;16.25;4.85;;;;;;;22.19;22.71;102509.47;5003586;28;99399;-68
2022/04/29 09:29:58;;;;;;;16.60;4.43;;;;;;;23.01;22.11;102511.91;5003086;28;101745;-68
2022/04/29 09:32:25;;;;;;;14.75;4.60;;;;;;;22.02;22.15;102504.19;5001416;28;97306;-69
2022/04/29 09:34:54;;;;;;;14.57;3.72;;;;;;;22.50;21.93;102511.31;5005311;28;96886;-68
2022/04/29 09:37:22;;;;;;;8.45;3.80;;;;;;;22.19;22.19;102505.91;5004783;28;100969;-68
2022/04/29 09:39:52;;;;;;;9.43;4.05;;;;;;;22.26;22.42;102507.28;5007867;28;99590;-67
2022/04/29 09:42:19;;;;;;;10.27;4.40;;;;;;;22.48;22.46;102502.44;5005511;28;96817;-69
2022/04/29 09:44:46;;;;;;;19.38;4.50;;;;;;;22.10;22.83;102506.44;5008192;28;97296;-69
2022/04/29 09:47:14;;;;;;;15.82;5.05;;;;;;;22.43;22.48;102500.97;5003565;28;99420;-69
2022/04/29 09:49:42;;;;;;;11.60;4.20;;;;;;;22.21;22.46;102498.63;5002985;28;98713;-69
2022/04/29 09:52:10;;;;;;;14.43;4.03;;;;;;;21.98;22.36;102491.84;5002930;28;96729;-69
2022/04/29 09:54:37;;;;;;;13.35;4.63;;;;;;;22.37;22.02;102493.25;4998311;28;96895;-68
2022/04/29 09:57:10;;;;;;;11.05;3.70;;;;;;;22.44;22.34;102490.13;4999119;28;97734;-71
2022/04/29 09:59:39;;;;;;;17.60;5.22;;;;;;;21.09;23.45;102487.63;5002196;28;99115;-70
2022/04/29 10:02:06;;;;;;;8.75;4.10;;;;;;;21.22;23.45;102487.03;5011397;28;98298;-72
2022/04/29 10:04:35;;;;;;;13.50;4.07;;;;;;;21.78;22.50;102484.84;5004978;28;96899;-72
2022/04/29 10:07:04;;;;;;;41.17;5.57;;;;;;;22.38;21.92;102479.69;5008955;28;98421;-71
2022/04/29 10:09:33;;;;;;;13.65;4.13;;;;;;;22.47;21.46;102483.66;5005541;28;98889;-70
2022/04/29 10:12:02;;;;;;;10.38;3.25;;;;;;;22.91;21.02;102473.84;5010677;28;97316;-71
2022/04/29 10:14:30;;;;;;;10.27;4.32;;;;;;;22.43;21.52;102477.59;5004340;28;96873;-69
2022/04/29 10:22:33;;;;;;;;;;;;;;;22.58;21.56;102481.19;5003738;28;97111;-68
2022/04/29 10:25:05;;;;;;;15.35;4.40;;;;;;;22.43;21.75;102474.03;5005941;28;96880;-71
2022/04/29 10:27:33;;;;;;;11.55;4.05;;;;;;;21.77;22.05;102472.34;5003079;28;99159;-68
2022/04/29 10:30:00;;;;;;;14.60;4.18;;;;;;;22.45;21.79;102472.97;5004787;28;99143;-68
2022/04/29 10:32:26;;;;;;;10.30;4.20;;;;;;;21.57;22.83;102464.50;5006709;28;96842;-69
2022/04/29 10:34:55;;;;;;;8.68;4.10;;;;;;;22.22;22.70;102468.06;5009068;28;97245;-68
2022/04/29 10:37:32;;;;;;;9.63;4.05;;;;;;;20.73;24.10;102465.34;5003904;28;99358;-67
2022/04/29 10:40:12;;;;;;;10.50;4.78;;;;;;;20.54;24.57;102462.75;5003302;28;98974;-68
2022/04/29 10:43:05;;;;;;;11.82;4.68;;;;;;;20.41;24.50;102466.09;5008883;28;96847;-68
2022/04/29 10:45:31;;;;;;;19.52;8.15;;;;;;;21.80;23.28;102450.63;5012826;28;97231;-70
2022/04/29 10:47:58;;;;;;;92.93;9.52;;;;;;;22.06;23.16;102449.19;5012999;28;98897;-71
2022/04/29 10:50:38;;;;;;;15.35;4.47;;;;;;;22.41;22.79;102457.94;5013042;28;98376;-69
2022/04/29 10:53:05;;;;;;;15.23;4.43;;;;;;;22.52;22.64;102446.53;5015426;28;96726;-70
2022/04/29 10:55:33;;;;;;;13.07;4.22;;;;;;;22.17;22.72;102441.41;5010802;28;97452;-70
2022/04/29 10:58:03;;;;;;;15.15;4.38;;;;;;;22.29;22.94;102439.81;5011659;28;99453;-70
2022/04/29 11:00:30;;;;;;;11.23;4.75;;;;;;;21.51;23.37;102439.75;5008843;28;98850;-71
2022/04/29 11:03:36;;;;;;;10.55;5.10;;;;;;;21.90;23.31;102433.97;5007984;28;96894;-71
2022/04/29 11:06:11;;;;;;;9.98;4.72;;;;;;;21.82;23.40;102432.59;5009060;28;97496;-70
2022/04/29 11:08:37;;;;;;;16.65;4.90;;;;;;;22.21;23.05;102428.63;5007024;28;98312;-70
2022/04/29 11:11:06;;;;;;;8.65;4.70;;;;;;;21.67;23.92;102428.06;5005261;28;98837;-70
2022/04/29 11:13:36;;;;;;;10.85;4.25;;;;;;;21.40;24.17;102424.19;5011431;28;96711;-69
2022/04/29 11:16:10;;;;;;;17.60;5.10;;;;;;;21.18;23.84;102420.94;5005969;28;96970;-71
2022/04/29 11:18:37;;;;;;;12.48;4.40;;;;;;;21.56;23.86;102424.22;5007601;28;98958;-71
2022/04/29 11:26:44;;;;;;;14.55;4.80;;;;;;;22.33;22.54;102418.94;5007026;28;97547;-71
2022/04/29 11:29:11;;;;;;;14.48;4.82;;;;;;;22.34;22.56;102407.22;4994295;28;99686;-71
2022/04/29 11:31:39;;;;;;;12.43;4.30;;;;;;;22.03;22.75;102408.16;5002125;28;98818;-72
2022/04/29 11:34:07;;;;;;;14.07;4.65;;;;;;;22.00;23.17;102400.22;4996621;28;97606;-71
2022/04/29 11:36:33;;;;;;;12.48;4.40;;;;;;;22.13;23.15;102403.94;5002381;28;96817;-70
2022/04/29 11:39:01;;;;;;;10.30;3.90;;;;;;;22.43;22.72;102396.78;4999765;28;98553;-70
2022/04/29 11:41:28;;;;;;;11.98;4.18;;;;;;;21.95;23.04;102391.53;5007296;28;99305;-71
2022/04/29 11:43:56;;;;;;;14.40;4.43;;;;;;;22.12;22.85;102394.16;5006363;28;96814;-69
2022/04/29 11:46:22;;;;;;;13.85;4.60;;;;;;;21.82;22.86;102394.91;4999919;28;97308;-71
2022/04/29 11:48:54;;;;;;;11.73;5.97;;;;;;;21.95;22.54;102394.22;5005880;28;100126;-73
2022/04/29 11:51:21;;;;;;;11.98;4.38;;;;;;;21.88;22.94;102385.63;4997395;28;97375;-71